sensor_id;sensor_type;location;lat;lon;timestamp;temperature;humidity
75786;DHT22;64402;44.708;37.644;2023-07-02T00:01:46;19.66;85.97
75786;DHT22;64402;44.708;37.644;2023-07-02T00:04:13;19.59;86.01
75786;DHT22;64402;44.708;37.644;2023-07-02T00:06:46;19.59;86.34
75786;DHT22;64402;44.708;37.644;2023-07-02T00:09:12;19.55;86.09
75786;DHT22;64402;44.708;37.644;2023-07-02T00:11:40;19.58;86.24
75786;DHT22;64402;44.708;37.644;2023-07-02T00:14:07;19.56;86.29
75786;DHT22;64402;44.708;37.644;2023-07-02T00:16:37;19.55;86.43
75786;DHT22;64402;44.708;37.644;2023-07-02T00:19:03;19.57;86.70
75786;DHT22;64402;44.708;37.644;2023-07-02T00:21:30;19.54;86.45
75786;DHT22;64402;44.708;37.644;2023-07-02T00:24:00;19.53;86.83
75786;DHT22;64402;44.708;37.644;2023-07-02T00:26:26;19.53;86.86
75786;DHT22;64402;44.708;37.644;2023-07-02T00:28:56;19.52;86.70
75786;DHT22;64402;44.708;37.644;2023-07-02T00:31:23;19.51;86.42
75786;DHT22;64402;44.708;37.644;2023-07-02T00:33:49;19.48;86.73
75786;DHT22;64402;44.708;37.644;2023-07-02T00:36:16;19.45;86.72
75786;DHT22;64402;44.708;37.644;2023-07-02T00:38:44;19.40;86.22
75786;DHT22;64402;44.708;37.644;2023-07-02T00:41:12;19.32;86.86
75786;DHT22;64402;44.708;37.644;2023-07-02T00:43:38;19.29;86.93
75786;DHT22;64402;44.708;37.644;2023-07-02T00:46:17;19.28;86.85
75786;DHT22;64402;44.708;37.644;2023-07-02T00:48:51;19.32;86.70
75786;DHT22;64402;44.708;37.644;2023-07-02T00:51:19;19.30;86.49
75786;DHT22;64402;44.708;37.644;2023-07-02T00:53:47;19.33;86.67
75786;DHT22;64402;44.708;37.644;2023-07-02T00:56:14;19.35;86.52
75786;DHT22;64402;44.708;37.644;2023-07-02T00:58:41;19.40;86.38
75786;DHT22;64402;44.708;37.644;2023-07-02T01:01:23;19.33;86.56
75786;DHT22;64402;44.708;37.644;2023-07-02T01:03:59;19.29;86.26
75786;DHT22;64402;44.708;37.644;2023-07-02T01:08:57;19.36;86.74
75786;DHT22;64402;44.708;37.644;2023-07-02T01:11:29;19.38;86.48
75786;DHT22;64402;44.708;37.644;2023-07-02T01:14:00;19.36;87.05
75786;DHT22;64402;44.708;37.644;2023-07-02T01:16:28;19.30;86.94
75786;DHT22;64402;44.708;37.644;2023-07-02T01:18:56;19.30;86.99
75786;DHT22;64402;44.708;37.644;2023-07-02T01:21:24;19.36;86.83
75786;DHT22;64402;44.708;37.644;2023-07-02T01:23:51;19.31;86.54
75786;DHT22;64402;44.708;37.644;2023-07-02T01:26:17;19.29;86.55
75786;DHT22;64402;44.708;37.644;2023-07-02T01:28:44;19.23;86.00
75786;DHT22;64402;44.708;37.644;2023-07-02T01:31:10;19.22;86.28
75786;DHT22;64402;44.708;37.644;2023-07-02T01:33:36;19.26;86.62
75786;DHT22;64402;44.708;37.644;2023-07-02T01:36:02;19.28;86.55
75786;DHT22;64402;44.708;37.644;2023-07-02T01:38:28;19.29;86.38
75786;DHT22;64402;44.708;37.644;2023-07-02T01:40:55;19.31;87.00
75786;DHT22;64402;44.708;37.644;2023-07-02T01:43:21;19.31;86.97
75786;DHT22;64402;44.708;37.644;2023-07-02T01:45:48;19.33;87.15
75786;DHT22;64402;44.708;37.644;2023-07-02T01:48:14;19.36;86.90
75786;DHT22;64402;44.708;37.644;2023-07-02T01:50:41;19.39;87.29
75786;DHT22;64402;44.708;37.644;2023-07-02T01:53:07;19.36;86.70
75786;DHT22;64402;44.708;37.644;2023-07-02T01:55:33;19.37;86.35
75786;DHT22;64402;44.708;37.644;2023-07-02T01:57:59;19.37;86.23
75786;DHT22;64402;44.708;37.644;2023-07-02T02:00:26;19.38;86.29
75786;DHT22;64402;44.708;37.644;2023-07-02T02:02:52;19.41;86.08
75786;DHT22;64402;44.708;37.644;2023-07-02T02:05:19;19.46;86.02
75786;DHT22;64402;44.708;37.644;2023-07-02T02:07:45;19.56;85.90
75786;DHT22;64402;44.708;37.644;2023-07-02T02:10:11;19.63;86.01
75786;DHT22;64402;44.708;37.644;2023-07-02T02:12:40;19.70;86.27
75786;DHT22;64402;44.708;37.644;2023-07-02T02:15:06;19.72;86.11
75786;DHT22;64402;44.708;37.644;2023-07-02T02:17:33;19.71;85.72
75786;DHT22;64402;44.708;37.644;2023-07-02T02:20:01;19.73;86.03
75786;DHT22;64402;44.708;37.644;2023-07-02T02:22:27;19.72;86.18
75786;DHT22;64402;44.708;37.644;2023-07-02T02:24:53;19.70;86.25
75786;DHT22;64402;44.708;37.644;2023-07-02T02:27:20;19.72;86.32
75786;DHT22;64402;44.708;37.644;2023-07-02T02:29:46;19.71;86.30
75786;DHT22;64402;44.708;37.644;2023-07-02T02:32:12;19.75;85.93
75786;DHT22;64402;44.708;37.644;2023-07-02T02:34:40;19.90;85.81
75786;DHT22;64402;44.708;37.644;2023-07-02T02:37:07;19.98;86.05
75786;DHT22;64402;44.708;37.644;2023-07-02T02:39:33;20.09;85.91
75786;DHT22;64402;44.708;37.644;2023-07-02T02:41:59;20.22;85.96
75786;DHT22;64402;44.708;37.644;2023-07-02T02:44:26;20.35;85.94
75786;DHT22;64402;44.708;37.644;2023-07-02T02:46:52;20.46;85.74
75786;DHT22;64402;44.708;37.644;2023-07-02T02:49:18;20.58;85.52
75786;DHT22;64402;44.708;37.644;2023-07-02T02:51:45;20.73;84.87
75786;DHT22;64402;44.708;37.644;2023-07-02T02:54:11;20.89;84.42
75786;DHT22;64402;44.708;37.644;2023-07-02T02:56:38;20.99;84.51
75786;DHT22;64402;44.708;37.644;2023-07-02T02:59:04;21.07;83.88
75786;DHT22;64402;44.708;37.644;2023-07-02T03:01:30;21.23;83.23
75786;DHT22;64402;44.708;37.644;2023-07-02T03:04:00;21.35;83.16
75786;DHT22;64402;44.708;37.644;2023-07-02T03:06:26;21.46;82.59
75786;DHT22;64402;44.708;37.644;2023-07-02T03:08:53;21.62;82.41
75786;DHT22;64402;44.708;37.644;2023-07-02T03:11:19;21.65;81.80
75786;DHT22;64402;44.708;37.644;2023-07-02T03:13:46;21.62;81.96
75786;DHT22;64402;44.708;37.644;2023-07-02T03:16:13;21.50;82.66
75786;DHT22;64402;44.708;37.644;2023-07-02T03:18:44;21.48;83.42
75786;DHT22;64402;44.708;37.644;2023-07-02T03:21:10;21.51;83.74
75786;DHT22;64402;44.708;37.644;2023-07-02T03:23:37;21.72;83.39
75786;DHT22;64402;44.708;37.644;2023-07-02T03:26:03;22.03;83.39
75786;DHT22;64402;44.708;37.644;2023-07-02T03:28:29;22.27;82.28
75786;DHT22;64402;44.708;37.644;2023-07-02T03:30:56;22.40;81.55
75786;DHT22;64402;44.708;37.644;2023-07-02T03:33:22;22.46;82.10
75786;DHT22;64402;44.708;37.644;2023-07-02T03:35:49;22.40;82.18
75786;DHT22;64402;44.708;37.644;2023-07-02T03:38:15;22.50;81.67
75786;DHT22;64402;44.708;37.644;2023-07-02T03:40:41;22.57;81.78
75786;DHT22;64402;44.708;37.644;2023-07-02T03:43:08;22.66;81.37
75786;DHT22;64402;44.708;37.644;2023-07-02T03:45:34;22.73;81.54
75786;DHT22;64402;44.708;37.644;2023-07-02T03:48:00;22.88;81.05
75786;DHT22;64402;44.708;37.644;2023-07-02T03:50:27;23.09;80.31
75786;DHT22;64402;44.708;37.644;2023-07-02T03:52:53;23.18;79.68
75786;DHT22;64402;44.708;37.644;2023-07-02T03:55:20;23.30;78.98
75786;DHT22;64402;44.708;37.644;2023-07-02T03:57:46;23.27;79.12
75786;DHT22;64402;44.708;37.644;2023-07-02T04:00:13;23.20;79.46
75786;DHT22;64402;44.708;37.644;2023-07-02T04:02:39;23.24;78.93
75786;DHT22;64402;44.708;37.644;2023-07-02T04:05:06;23.26;78.52
75786;DHT22;64402;44.708;37.644;2023-07-02T04:07:32;23.30;78.47
75786;DHT22;64402;44.708;37.644;2023-07-02T04:09:59;23.34;78.30
75786;DHT22;64402;44.708;37.644;2023-07-02T04:12:26;23.35;78.13
75786;DHT22;64402;44.708;37.644;2023-07-02T04:14:53;23.28;78.53
75786;DHT22;64402;44.708;37.644;2023-07-02T04:17:19;23.21;78.99
75786;DHT22;64402;44.708;37.644;2023-07-02T04:19:45;23.09;79.37
75786;DHT22;64402;44.708;37.644;2023-07-02T04:22:12;22.97;79.97
75786;DHT22;64402;44.708;37.644;2023-07-02T04:24:38;22.92;80.14
75786;DHT22;64402;44.708;37.644;2023-07-02T04:27:05;22.93;80.18
75786;DHT22;64402;44.708;37.644;2023-07-02T04:29:31;22.95;79.89
75786;DHT22;64402;44.708;37.644;2023-07-02T04:31:57;23.03;80.10
75786;DHT22;64402;44.708;37.644;2023-07-02T04:34:24;23.12;79.56
75786;DHT22;64402;44.708;37.644;2023-07-02T04:36:50;23.13;78.85
75786;DHT22;64402;44.708;37.644;2023-07-02T04:39:17;23.14;78.85
75786;DHT22;64402;44.708;37.644;2023-07-02T04:41:43;23.17;78.82
75786;DHT22;64402;44.708;37.644;2023-07-02T04:44:09;23.20;78.65
75786;DHT22;64402;44.708;37.644;2023-07-02T04:46:36;23.13;79.16
75786;DHT22;64402;44.708;37.644;2023-07-02T04:49:02;23.13;78.90
75786;DHT22;64402;44.708;37.644;2023-07-02T04:51:29;23.17;79.07
75786;DHT22;64402;44.708;37.644;2023-07-02T04:54:00;23.17;78.88
75786;DHT22;64402;44.708;37.644;2023-07-02T04:56:26;23.29;79.23
75786;DHT22;64402;44.708;37.644;2023-07-02T04:58:53;23.43;78.49
75786;DHT22;64402;44.708;37.644;2023-07-02T05:01:19;23.55;77.72
75786;DHT22;64402;44.708;37.644;2023-07-02T05:03:45;23.69;76.47
75786;DHT22;64402;44.708;37.644;2023-07-02T05:06:12;23.74;76.39
75786;DHT22;64402;44.708;37.644;2023-07-02T05:08:38;23.76;76.18
75786;DHT22;64402;44.708;37.644;2023-07-02T05:11:04;23.70;76.18
75786;DHT22;64402;44.708;37.644;2023-07-02T05:13:31;23.77;76.37
75786;DHT22;64402;44.708;37.644;2023-07-02T05:15:57;23.83;76.17
75786;DHT22;64402;44.708;37.644;2023-07-02T05:18:23;23.74;75.65
75786;DHT22;64402;44.708;37.644;2023-07-02T05:20:50;23.76;76.12
75786;DHT22;64402;44.708;37.644;2023-07-02T05:23:16;23.77;75.82
75786;DHT22;64402;44.708;37.644;2023-07-02T05:25:42;23.74;76.11
75786;DHT22;64402;44.708;37.644;2023-07-02T05:28:09;23.81;76.35
75786;DHT22;64402;44.708;37.644;2023-07-02T05:30:35;23.96;75.44
75786;DHT22;64402;44.708;37.644;2023-07-02T05:33:02;24.21;75.02
75786;DHT22;64402;44.708;37.644;2023-07-02T05:35:28;24.41;73.80
75786;DHT22;64402;44.708;37.644;2023-07-02T05:37:55;24.42;73.51
75786;DHT22;64402;44.708;37.644;2023-07-02T05:40:21;24.42;72.58
75786;DHT22;64402;44.708;37.644;2023-07-02T05:42:47;24.43;73.73
75786;DHT22;64402;44.708;37.644;2023-07-02T05:45:14;24.48;73.73
75786;DHT22;64402;44.708;37.644;2023-07-02T05:47:40;24.62;73.90
75786;DHT22;64402;44.708;37.644;2023-07-02T05:50:07;24.71;72.83
75786;DHT22;64402;44.708;37.644;2023-07-02T05:52:34;24.76;72.17
75786;DHT22;64402;44.708;37.644;2023-07-02T05:55:00;24.98;71.90
75786;DHT22;64402;44.708;37.644;2023-07-02T05:57:26;24.75;72.15
75786;DHT22;64402;44.708;37.644;2023-07-02T05:59:53;24.75;72.70
75786;DHT22;64402;44.708;37.644;2023-07-02T06:02:19;24.72;72.77
75786;DHT22;64402;44.708;37.644;2023-07-02T06:04:45;24.69;72.91
75786;DHT22;64402;44.708;37.644;2023-07-02T06:07:12;24.84;71.83
75786;DHT22;64402;44.708;37.644;2023-07-02T06:09:38;24.91;72.08
75786;DHT22;64402;44.708;37.644;2023-07-02T06:12:05;24.89;72.50
75786;DHT22;64402;44.708;37.644;2023-07-02T06:14:31;24.73;72.51
75786;DHT22;64402;44.708;37.644;2023-07-02T06:16:57;24.69;72.65
75786;DHT22;64402;44.708;37.644;2023-07-02T06:19:25;24.71;72.11
75786;DHT22;64402;44.708;37.644;2023-07-02T06:21:51;24.77;72.63
75786;DHT22;64402;44.708;37.644;2023-07-02T06:24:18;24.75;72.58
75786;DHT22;64402;44.708;37.644;2023-07-02T06:26:44;24.61;72.19
75786;DHT22;64402;44.708;37.644;2023-07-02T06:29:11;24.58;72.04
75786;DHT22;64402;44.708;37.644;2023-07-02T06:31:37;24.99;71.68
75786;DHT22;64402;44.708;37.644;2023-07-02T06:34:03;24.98;70.04
75786;DHT22;64402;44.708;37.644;2023-07-02T06:36:30;24.84;71.70
75786;DHT22;64402;44.708;37.644;2023-07-02T06:38:56;24.83;71.73
75786;DHT22;64402;44.708;37.644;2023-07-02T06:41:23;24.94;71.40
75786;DHT22;64402;44.708;37.644;2023-07-02T06:43:49;24.92;71.06
75786;DHT22;64402;44.708;37.644;2023-07-02T06:46:15;25.01;70.47
75786;DHT22;64402;44.708;37.644;2023-07-02T06:48:42;25.21;70.69
75786;DHT22;64402;44.708;37.644;2023-07-02T06:51:08;25.24;69.77
75786;DHT22;64402;44.708;37.644;2023-07-02T06:53:35;25.01;69.92
75786;DHT22;64402;44.708;37.644;2023-07-02T06:56:02;24.80;71.45
75786;DHT22;64402;44.708;37.644;2023-07-02T06:58:30;24.49;71.91
75786;DHT22;64402;44.708;37.644;2023-07-02T07:00:56;24.51;73.09
75786;DHT22;64402;44.708;37.644;2023-07-02T07:03:22;24.64;71.66
75786;DHT22;64402;44.708;37.644;2023-07-02T07:05:48;24.70;70.75
75786;DHT22;64402;44.708;37.644;2023-07-02T07:08:14;24.71;71.63
75786;DHT22;64402;44.708;37.644;2023-07-02T07:10:40;24.98;70.71
75786;DHT22;64402;44.708;37.644;2023-07-02T07:13:07;25.20;70.13
75786;DHT22;64402;44.708;37.644;2023-07-02T07:15:34;25.48;68.20
75786;DHT22;64402;44.708;37.644;2023-07-02T07:18:01;25.63;66.64
75786;DHT22;64402;44.708;37.644;2023-07-02T07:20:28;25.62;66.45
75786;DHT22;64402;44.708;37.644;2023-07-02T07:22:54;25.82;66.50
75786;DHT22;64402;44.708;37.644;2023-07-02T07:25:20;25.71;66.56
75786;DHT22;64402;44.708;37.644;2023-07-02T07:27:46;25.81;67.35
75786;DHT22;64402;44.708;37.644;2023-07-02T07:30:13;26.07;64.59
75786;DHT22;64402;44.708;37.644;2023-07-02T07:32:43;26.21;65.14
75786;DHT22;64402;44.708;37.644;2023-07-02T07:35:09;26.38;65.27
75786;DHT22;64402;44.708;37.644;2023-07-02T07:37:36;26.39;63.13
75786;DHT22;64402;44.708;37.644;2023-07-02T07:40:03;26.56;64.12
75786;DHT22;64402;44.708;37.644;2023-07-02T07:42:31;26.51;62.37
75786;DHT22;64402;44.708;37.644;2023-07-02T07:44:58;26.31;63.97
75786;DHT22;64402;44.708;37.644;2023-07-02T07:47:24;26.06;65.04
75786;DHT22;64402;44.708;37.644;2023-07-02T07:49:50;25.94;66.58
75786;DHT22;64402;44.708;37.644;2023-07-02T07:52:16;25.99;66.54
75786;DHT22;64402;44.708;37.644;2023-07-02T07:54:42;26.21;63.97
75786;DHT22;64402;44.708;37.644;2023-07-02T07:57:09;26.10;64.11
75786;DHT22;64402;44.708;37.644;2023-07-02T07:59:35;26.33;64.56
75786;DHT22;64402;44.708;37.644;2023-07-02T08:02:01;26.60;62.40
75786;DHT22;64402;44.708;37.644;2023-07-02T08:04:27;26.73;59.77
75786;DHT22;64402;44.708;37.644;2023-07-02T08:06:53;26.76;60.99
75786;DHT22;64402;44.708;37.644;2023-07-02T08:09:20;26.86;61.47
75786;DHT22;64402;44.708;37.644;2023-07-02T08:11:47;27.09;61.67
75786;DHT22;64402;44.708;37.644;2023-07-02T08:14:13;27.13;60.54
75786;DHT22;64402;44.708;37.644;2023-07-02T08:16:39;27.13;60.73
75786;DHT22;64402;44.708;37.644;2023-07-02T08:19:05;27.09;60.90
75786;DHT22;64402;44.708;37.644;2023-07-02T08:21:31;27.35;60.31
75786;DHT22;64402;44.708;37.644;2023-07-02T08:23:57;27.36;60.93
75786;DHT22;64402;44.708;37.644;2023-07-02T08:26:23;27.38;60.45
75786;DHT22;64402;44.708;37.644;2023-07-02T08:28:49;27.50;59.81
75786;DHT22;64402;44.708;37.644;2023-07-02T08:31:16;27.49;60.57
75786;DHT22;64402;44.708;37.644;2023-07-02T08:33:42;27.42;60.09
75786;DHT22;64402;44.708;37.644;2023-07-02T08:36:08;27.26;60.02
75786;DHT22;64402;44.708;37.644;2023-07-02T08:38:35;27.49;61.35
75786;DHT22;64402;44.708;37.644;2023-07-02T08:41:01;27.72;59.58
75786;DHT22;64402;44.708;37.644;2023-07-02T08:43:29;27.69;59.99
75786;DHT22;64402;44.708;37.644;2023-07-02T08:45:56;28.04;59.53
75786;DHT22;64402;44.708;37.644;2023-07-02T08:48:22;27.96;59.92
75786;DHT22;64402;44.708;37.644;2023-07-02T08:50:50;28.25;60.67
75786;DHT22;64402;44.708;37.644;2023-07-02T08:53:16;28.42;59.27
75786;DHT22;64402;44.708;37.644;2023-07-02T08:55:43;28.61;57.88
75786;DHT22;64402;44.708;37.644;2023-07-02T08:58:09;28.42;58.45
75786;DHT22;64402;44.708;37.644;2023-07-02T09:00:36;28.11;57.67
75786;DHT22;64402;44.708;37.644;2023-07-02T09:03:15;28.04;58.48
75786;DHT22;64402;44.708;37.644;2023-07-02T09:05:52;28.28;56.51
75786;DHT22;64402;44.708;37.644;2023-07-02T09:08:26;28.45;57.13
75786;DHT22;64402;44.708;37.644;2023-07-02T09:10:52;28.67;56.37
75786;DHT22;64402;44.708;37.644;2023-07-02T09:13:18;28.93;56.98
75786;DHT22;64402;44.708;37.644;2023-07-02T09:15:45;28.82;57.20
75786;DHT22;64402;44.708;37.644;2023-07-02T09:18:15;29.47;55.18
75786;DHT22;64402;44.708;37.644;2023-07-02T09:20:42;29.51;55.58
75786;DHT22;64402;44.708;37.644;2023-07-02T09:23:08;29.68;54.48
75786;DHT22;64402;44.708;37.644;2023-07-02T09:25:39;30.01;54.62
75786;DHT22;64402;44.708;37.644;2023-07-02T09:28:20;30.71;53.57
75786;DHT22;64402;44.708;37.644;2023-07-02T09:30:50;31.33;51.43
75786;DHT22;64402;44.708;37.644;2023-07-02T09:33:17;33.65;45.32
75786;DHT22;64402;44.708;37.644;2023-07-02T09:35:44;34.21;42.03
75786;DHT22;64402;44.708;37.644;2023-07-02T09:38:10;35.79;39.31
75786;DHT22;64402;44.708;37.644;2023-07-02T09:40:44;35.35;38.78
75786;DHT22;64402;44.708;37.644;2023-07-02T09:43:11;35.86;38.76
75786;DHT22;64402;44.708;37.644;2023-07-02T09:45:38;35.63;38.80
75786;DHT22;64402;44.708;37.644;2023-07-02T09:48:08;35.80;38.42
75786;DHT22;64402;44.708;37.644;2023-07-02T09:50:35;36.13;38.42
75786;DHT22;64402;44.708;37.644;2023-07-02T09:53:05;36.29;38.35
75786;DHT22;64402;44.708;37.644;2023-07-02T09:55:32;35.72;39.99
75786;DHT22;64402;44.708;37.644;2023-07-02T09:57:59;34.56;41.80
75786;DHT22;64402;44.708;37.644;2023-07-02T10:00:26;34.14;42.23
75786;DHT22;64402;44.708;37.644;2023-07-02T10:02:52;34.84;41.88
75786;DHT22;64402;44.708;37.644;2023-07-02T10:05:32;35.96;38.40
75786;DHT22;64402;44.708;37.644;2023-07-02T10:08:13;35.21;39.05
75786;DHT22;64402;44.708;37.644;2023-07-02T10:10:40;35.90;38.58
75786;DHT22;64402;44.708;37.644;2023-07-02T10:13:07;34.56;40.24
75786;DHT22;64402;44.708;37.644;2023-07-02T10:15:34;34.50;41.08
75786;DHT22;64402;44.708;37.644;2023-07-02T10:18:04;33.49;43.07
75786;DHT22;64402;44.708;37.644;2023-07-02T10:20:35;33.64;42.67
75786;DHT22;64402;44.708;37.644;2023-07-02T10:23:03;33.87;42.39
75786;DHT22;64402;44.708;37.644;2023-07-02T10:25:38;32.53;45.57
75786;DHT22;64402;44.708;37.644;2023-07-02T10:28:16;33.66;42.87
75786;DHT22;64402;44.708;37.644;2023-07-02T10:30:42;34.66;41.47
75786;DHT22;64402;44.708;37.644;2023-07-02T10:33:12;34.61;41.50
75786;DHT22;64402;44.708;37.644;2023-07-02T10:35:40;34.52;41.45
75786;DHT22;64402;44.708;37.644;2023-07-02T10:38:21;35.54;38.91
75786;DHT22;64402;44.708;37.644;2023-07-02T10:40:58;35.98;38.65
75786;DHT22;64402;44.708;37.644;2023-07-02T10:43:30;36.85;36.56
75786;DHT22;64402;44.708;37.644;2023-07-02T10:45:57;36.78;36.63
75786;DHT22;64402;44.708;37.644;2023-07-02T10:48:26;37.03;35.74
75786;DHT22;64402;44.708;37.644;2023-07-02T10:50:52;37.01;35.56
75786;DHT22;64402;44.708;37.644;2023-07-02T10:53:19;35.82;37.21
75786;DHT22;64402;44.708;37.644;2023-07-02T10:55:52;34.41;42.05
75786;DHT22;64402;44.708;37.644;2023-07-02T10:58:20;35.47;38.50
75786;DHT22;64402;44.708;37.644;2023-07-02T11:00:50;34.90;39.72
75786;DHT22;64402;44.708;37.644;2023-07-02T11:03:21;35.60;39.07
75786;DHT22;64402;44.708;37.644;2023-07-02T11:05:49;35.97;38.19
75786;DHT22;64402;44.708;37.644;2023-07-02T11:08:16;36.27;37.38
75786;DHT22;64402;44.708;37.644;2023-07-02T11:10:43;36.82;35.61
75786;DHT22;64402;44.708;37.644;2023-07-02T11:13:17;37.25;34.93
75786;DHT22;64402;44.708;37.644;2023-07-02T11:15:44;38.82;32.47
75786;DHT22;64402;44.708;37.644;2023-07-02T11:18:13;38.54;32.57
75786;DHT22;64402;44.708;37.644;2023-07-02T11:20:41;39.44;30.43
75786;DHT22;64402;44.708;37.644;2023-07-02T11:25:57;38.96;31.07
75786;DHT22;64402;44.708;37.644;2023-07-02T11:28:25;38.90;30.97
75786;DHT22;64402;44.708;37.644;2023-07-02T11:30:52;39.30;29.99
75786;DHT22;64402;44.708;37.644;2023-07-02T11:33:20;38.41;32.51
75786;DHT22;64402;44.708;37.644;2023-07-02T11:35:47;39.04;30.80
75786;DHT22;64402;44.708;37.644;2023-07-02T11:38:13;38.61;31.16
75786;DHT22;64402;44.708;37.644;2023-07-02T11:40:40;38.47;30.90
75786;DHT22;64402;44.708;37.644;2023-07-02T11:43:06;38.76;31.38
75786;DHT22;64402;44.708;37.644;2023-07-02T11:45:33;38.80;29.93
75786;DHT22;64402;44.708;37.644;2023-07-02T11:47:59;39.47;29.25
75786;DHT22;64402;44.708;37.644;2023-07-02T11:50:26;39.48;28.53
75786;DHT22;64402;44.708;37.644;2023-07-02T11:52:52;38.70;30.35
75786;DHT22;64402;44.708;37.644;2023-07-02T11:55:19;39.06;29.96
75786;DHT22;64402;44.708;37.644;2023-07-02T11:57:46;39.47;28.06
75786;DHT22;64402;44.708;37.644;2023-07-02T12:00:13;39.89;28.23
75786;DHT22;64402;44.708;37.644;2023-07-02T12:02:39;39.91;28.14
75786;DHT22;64402;44.708;37.644;2023-07-02T12:05:06;40.01;27.11
75786;DHT22;64402;44.708;37.644;2023-07-02T12:07:35;40.08;27.29
75786;DHT22;64402;44.708;37.644;2023-07-02T12:10:02;39.62;27.28
75786;DHT22;64402;44.708;37.644;2023-07-02T12:12:30;39.62;27.60
75786;DHT22;64402;44.708;37.644;2023-07-02T12:14:56;40.17;27.20
75786;DHT22;64402;44.708;37.644;2023-07-02T12:17:23;40.47;26.71
75786;DHT22;64402;44.708;37.644;2023-07-02T12:19:49;41.11;25.92
75786;DHT22;64402;44.708;37.644;2023-07-02T12:22:16;39.85;27.09
75786;DHT22;64402;44.708;37.644;2023-07-02T12:24:44;39.63;27.13
75786;DHT22;64402;44.708;37.644;2023-07-02T12:27:11;39.73;28.07
75786;DHT22;64402;44.708;37.644;2023-07-02T12:29:38;40.43;26.93
75786;DHT22;64402;44.708;37.644;2023-07-02T12:32:05;40.68;27.04
75786;DHT22;64402;44.708;37.644;2023-07-02T12:34:32;40.92;24.48
75786;DHT22;64402;44.708;37.644;2023-07-02T12:36:58;39.64;26.88
75786;DHT22;64402;44.708;37.644;2023-07-02T12:39:25;39.04;28.18
75786;DHT22;64402;44.708;37.644;2023-07-02T12:41:53;39.26;27.60
75786;DHT22;64402;44.708;37.644;2023-07-02T12:44:19;39.74;25.88
75786;DHT22;64402;44.708;37.644;2023-07-02T12:46:47;39.82;26.39
75786;DHT22;64402;44.708;37.644;2023-07-02T12:49:13;40.40;25.62
75786;DHT22;64402;44.708;37.644;2023-07-02T12:51:40;40.58;25.09
75786;DHT22;64402;44.708;37.644;2023-07-02T12:54:06;40.23;24.98
75786;DHT22;64402;44.708;37.644;2023-07-02T12:56:33;40.14;25.79
75786;DHT22;64402;44.708;37.644;2023-07-02T12:59:02;39.38;26.51
75786;DHT22;64402;44.708;37.644;2023-07-02T13:01:28;39.42;23.63
75786;DHT22;64402;44.708;37.644;2023-07-02T13:03:55;40.09;25.70
75786;DHT22;64402;44.708;37.644;2023-07-02T13:06:21;40.66;23.75
75786;DHT22;64402;44.708;37.644;2023-07-02T13:08:48;40.63;23.66
75786;DHT22;64402;44.708;37.644;2023-07-02T13:11:15;40.40;24.45
75786;DHT22;64402;44.708;37.644;2023-07-02T13:13:41;40.10;24.86
75786;DHT22;64402;44.708;37.644;2023-07-02T13:16:08;40.36;24.10
75786;DHT22;64402;44.708;37.644;2023-07-02T13:18:35;40.38;24.70
75786;DHT22;64402;44.708;37.644;2023-07-02T13:21:01;40.03;24.52
75786;DHT22;64402;44.708;37.644;2023-07-02T13:23:28;39.52;27.02
75786;DHT22;64402;44.708;37.644;2023-07-02T13:25:54;38.81;27.55
75786;DHT22;64402;44.708;37.644;2023-07-02T13:28:21;39.27;26.93
75786;DHT22;64402;44.708;37.644;2023-07-02T13:30:48;39.48;26.87
75786;DHT22;64402;44.708;37.644;2023-07-02T13:33:14;38.39;28.61
75786;DHT22;64402;44.708;37.644;2023-07-02T13:35:41;38.90;28.49
75786;DHT22;64402;44.708;37.644;2023-07-02T13:38:10;38.93;27.10
75786;DHT22;64402;44.708;37.644;2023-07-02T13:40:36;38.92;28.51
75786;DHT22;64402;44.708;37.644;2023-07-02T13:43:02;39.37;28.90
75786;DHT22;64402;44.708;37.644;2023-07-02T13:45:29;39.65;26.43
75786;DHT22;64402;44.708;37.644;2023-07-02T13:47:56;39.08;27.72
75786;DHT22;64402;44.708;37.644;2023-07-02T13:50:22;39.92;27.09
75786;DHT22;64402;44.708;37.644;2023-07-02T13:52:49;40.26;25.73
75786;DHT22;64402;44.708;37.644;2023-07-02T13:55:16;41.10;24.68
75786;DHT22;64402;44.708;37.644;2023-07-02T13:57:42;41.46;24.63
75786;DHT22;64402;44.708;37.644;2023-07-02T14:00:09;40.41;25.30
75786;DHT22;64402;44.708;37.644;2023-07-02T14:02:36;40.76;24.53
75786;DHT22;64402;44.708;37.644;2023-07-02T14:05:06;39.95;26.25
75786;DHT22;64402;44.708;37.644;2023-07-02T14:07:32;40.38;26.14
75786;DHT22;64402;44.708;37.644;2023-07-02T14:09:59;41.13;25.24
75786;DHT22;64402;44.708;37.644;2023-07-02T14:12:26;39.98;26.07
75786;DHT22;64402;44.708;37.644;2023-07-02T14:14:53;39.24;25.11
75786;DHT22;64402;44.708;37.644;2023-07-02T14:17:20;39.48;26.16
75786;DHT22;64402;44.708;37.644;2023-07-02T14:19:47;39.50;26.49
75786;DHT22;64402;44.708;37.644;2023-07-02T14:22:13;38.97;27.20
75786;DHT22;64402;44.708;37.644;2023-07-02T14:24:40;39.77;26.61
75786;DHT22;64402;44.708;37.644;2023-07-02T14:27:07;39.56;26.40
75786;DHT22;64402;44.708;37.644;2023-07-02T14:29:34;39.45;26.62
75786;DHT22;64402;44.708;37.644;2023-07-02T14:32:00;40.26;24.75
75786;DHT22;64402;44.708;37.644;2023-07-02T14:34:27;40.76;24.20
75786;DHT22;64402;44.708;37.644;2023-07-02T14:36:55;40.75;22.69
75786;DHT22;64402;44.708;37.644;2023-07-02T14:39:23;40.22;25.26
75786;DHT22;64402;44.708;37.644;2023-07-02T14:41:49;39.92;25.75
75786;DHT22;64402;44.708;37.644;2023-07-02T14:44:16;39.17;26.73
75786;DHT22;64402;44.708;37.644;2023-07-02T14:46:43;39.62;25.50
75786;DHT22;64402;44.708;37.644;2023-07-02T14:49:10;40.56;23.40
75786;DHT22;64402;44.708;37.644;2023-07-02T14:51:36;39.77;26.68
75786;DHT22;64402;44.708;37.644;2023-07-02T14:54:03;38.54;27.38
75786;DHT22;64402;44.708;37.644;2023-07-02T14:56:30;38.22;28.21
75786;DHT22;64402;44.708;37.644;2023-07-02T14:58:56;38.24;28.00
75786;DHT22;64402;44.708;37.644;2023-07-02T15:01:23;38.94;27.52
75786;DHT22;64402;44.708;37.644;2023-07-02T15:03:50;38.82;27.59
75786;DHT22;64402;44.708;37.644;2023-07-02T15:06:17;38.69;27.99
75786;DHT22;64402;44.708;37.644;2023-07-02T15:08:44;39.34;25.99
75786;DHT22;64402;44.708;37.644;2023-07-02T15:11:13;38.59;27.64
75786;DHT22;64402;44.708;37.644;2023-07-02T15:13:40;37.91;29.60
75786;DHT22;64402;44.708;37.644;2023-07-02T15:16:08;37.82;29.20
75786;DHT22;64402;44.708;37.644;2023-07-02T15:18:35;37.86;27.61
75786;DHT22;64402;44.708;37.644;2023-07-02T15:21:02;37.56;30.54